sensor_id;sensor_type;location;lat;lon;timestamp;temperature;humidity
44121;DHT22;29783;52.504;13.478;2023-03-01T00:01:08;-3275.10;81.10
44121;DHT22;29783;52.504;13.478;2023-03-01T00:03:34;-3275.10;81.20
44121;DHT22;29783;52.504;13.478;2023-03-01T00:06:01;-3275.00;81.40
44121;DHT22;29783;52.504;13.478;2023-03-01T00:08:27;-3275.00;81.60
44121;DHT22;29783;52.504;13.478;2023-03-01T00:11:21;-3275.00;81.90
44121;DHT22;29783;52.504;13.478;2023-03-01T00:13:49;-3275.10;82.10
44121;DHT22;29783;52.504;13.478;2023-03-01T00:16:18;-3275.10;81.80
44121;DHT22;29783;52.504;13.478;2023-03-01T00:18:44;-3275.00;81.90
44121;DHT22;29783;52.504;13.478;2023-03-01T00:21:10;-3275.00;82.30
44121;DHT22;29783;52.504;13.478;2023-03-01T00:23:37;-3275.00;82.80
44121;DHT22;29783;52.504;13.478;2023-03-01T00:26:06;-3274.90;83.00
44121;DHT22;29783;52.504;13.478;2023-03-01T00:28:32;-3274.80;83.40
44121;DHT22;29783;52.504;13.478;2023-03-01T00:31:06;-3274.80;83.80
44121;DHT22;29783;52.504;13.478;2023-03-01T00:33:32;-3274.80;84.20
44121;DHT22;29783;52.504;13.478;2023-03-01T00:35:59;-3274.80;84.30
44121;DHT22;29783;52.504;13.478;2023-03-01T00:38:25;-3274.80;84.40
44121;DHT22;29783;52.504;13.478;2023-03-01T00:40:50;-3274.80;84.40
44121;DHT22;29783;52.504;13.478;2023-03-01T00:43:16;-3274.80;84.40
44121;DHT22;29783;52.504;13.478;2023-03-01T00:45:42;-3274.70;84.40
44121;DHT22;29783;52.504;13.478;2023-03-01T00:48:08;-3274.70;84.50
44121;DHT22;29783;52.504;13.478;2023-03-01T00:50:34;-3274.70;84.70
44121;DHT22;29783;52.504;13.478;2023-03-01T00:52:59;-3274.70;84.90
44121;DHT22;29783;52.504;13.478;2023-03-01T00:55:25;-3274.70;85.00
44121;DHT22;29783;52.504;13.478;2023-03-01T00:57:52;-3274.70;85.10
44121;DHT22;29783;52.504;13.478;2023-03-01T01:00:19;-3274.70;85.30
44121;DHT22;29783;52.504;13.478;2023-03-01T01:02:45;-3274.70;85.10
44121;DHT22;29783;52.504;13.478;2023-03-01T01:05:12;-3274.70;84.90
44121;DHT22;29783;52.504;13.478;2023-03-01T01:07:37;-3274.70;84.70
44121;DHT22;29783;52.504;13.478;2023-03-01T01:10:04;-3274.70;84.60
44121;DHT22;29783;52.504;13.478;2023-03-01T01:12:29;-3274.60;84.50
44121;DHT22;29783;52.504;13.478;2023-03-01T01:14:58;-3274.60;84.70
44121;DHT22;29783;52.504;13.478;2023-03-01T01:17:24;-3274.60;84.60
44121;DHT22;29783;52.504;13.478;2023-03-01T01:19:50;-3274.70;84.60
44121;DHT22;29783;52.504;13.478;2023-03-01T01:22:16;-3274.70;84.50
44121;DHT22;29783;52.504;13.478;2023-03-01T01:24:41;-3274.60;84.50
44121;DHT22;29783;52.504;13.478;2023-03-01T01:27:07;-3274.60;84.60
44121;DHT22;29783;52.504;13.478;2023-03-01T01:29:33;-3274.60;84.70
44121;DHT22;29783;52.504;13.478;2023-03-01T01:31:59;-3274.50;84.90
44121;DHT22;29783;52.504;13.478;2023-03-01T01:34:24;-3274.60;85.30
44121;DHT22;29783;52.504;13.478;2023-03-01T01:36:53;-3274.50;85.20
44121;DHT22;29783;52.504;13.478;2023-03-01T01:39:20;-3274.50;85.30
44121;DHT22;29783;52.504;13.478;2023-03-01T01:41:46;-3274.50;85.40
44121;DHT22;29783;52.504;13.478;2023-03-01T01:44:15;-3274.40;85.40
44121;DHT22;29783;52.504;13.478;2023-03-01T01:46:50;-3274.40;85.30
44121;DHT22;29783;52.504;13.478;2023-03-01T01:49:25;-3274.40;85.30
44121;DHT22;29783;52.504;13.478;2023-03-01T01:55:11;-3274.50;85.00
44121;DHT22;29783;52.504;13.478;2023-03-01T01:57:41;-3274.40;84.80
44121;DHT22;29783;52.504;13.478;2023-03-01T02:00:23;-3274.40;84.80
44121;DHT22;29783;52.504;13.478;2023-03-01T02:02:52;-3274.40;84.80
44121;DHT22;29783;52.504;13.478;2023-03-01T02:08:11;-3274.40;85.00
44121;DHT22;29783;52.504;13.478;2023-03-01T02:10:38;-3274.50;85.10
44121;DHT22;29783;52.504;13.478;2023-03-01T02:13:05;-3274.40;85.20
44121;DHT22;29783;52.504;13.478;2023-03-01T02:15:35;-3274.30;85.40
44121;DHT22;29783;52.504;13.478;2023-03-01T02:18:02;-3274.30;85.60
44121;DHT22;29783;52.504;13.478;2023-03-01T02:20:39;-3274.30;85.80
44121;DHT22;29783;52.504;13.478;2023-03-01T02:23:06;-3274.30;86.10
44121;DHT22;29783;52.504;13.478;2023-03-01T02:30:43;-3274.30;86.50
44121;DHT22;29783;52.504;13.478;2023-03-01T02:33:28;-3274.30;86.50
44121;DHT22;29783;52.504;13.478;2023-03-01T02:36:00;-3274.30;86.50
44121;DHT22;29783;52.504;13.478;2023-03-01T02:38:26;-3274.20;86.40
44121;DHT22;29783;52.504;13.478;2023-03-01T02:40:54;-3274.20;86.50
44121;DHT22;29783;52.504;13.478;2023-03-01T02:43:27;-3274.20;86.60
44121;DHT22;29783;52.504;13.478;2023-03-01T02:45:58;-3274.20;86.60
44121;DHT22;29783;52.504;13.478;2023-03-01T02:48:24;-3274.10;86.50
44121;DHT22;29783;52.504;13.478;2023-03-01T02:50:58;-3274.10;86.60
44121;DHT22;29783;52.504;13.478;2023-03-01T02:53:45;-3274.20;86.80
44121;DHT22;29783;52.504;13.478;2023-03-01T02:56:15;-3274.20;87.00
44121;DHT22;29783;52.504;13.478;2023-03-01T02:58:42;-3274.20;87.00
44121;DHT22;29783;52.504;13.478;2023-03-01T03:01:13;-3274.10;87.00
44121;DHT22;29783;52.504;13.478;2023-03-01T03:03:41;-3274.10;87.10
44121;DHT22;29783;52.504;13.478;2023-03-01T03:06:07;-3274.00;87.20
44121;DHT22;29783;52.504;13.478;2023-03-01T03:08:33;-3274.00;87.30
44121;DHT22;29783;52.504;13.478;2023-03-01T03:10:59;-3274.00;87.30
44121;DHT22;29783;52.504;13.478;2023-03-01T03:13:24;-3274.00;87.40
44121;DHT22;29783;52.504;13.478;2023-03-01T03:15:55;-3274.00;87.50
44121;DHT22;29783;52.504;13.478;2023-03-01T03:18:22;-3273.90;87.60
44121;DHT22;29783;52.504;13.478;2023-03-01T03:20:51;-3273.90;87.80
44121;DHT22;29783;52.504;13.478;2023-03-01T03:23:21;-3273.80;87.90
44121;DHT22;29783;52.504;13.478;2023-03-01T03:25:51;-3273.80;87.90
44121;DHT22;29783;52.504;13.478;2023-03-01T03:28:17;-3273.80;88.10
44121;DHT22;29783;52.504;13.478;2023-03-01T03:30:44;-3273.90;88.20
44121;DHT22;29783;52.504;13.478;2023-03-01T03:33:10;-3273.80;88.10
44121;DHT22;29783;52.504;13.478;2023-03-01T03:35:46;-3273.80;88.20
44121;DHT22;29783;52.504;13.478;2023-03-01T03:38:14;-3273.70;88.30
44121;DHT22;29783;52.504;13.478;2023-03-01T03:40:45;-3273.70;88.60
44121;DHT22;29783;52.504;13.478;2023-03-01T03:43:21;-3273.70;88.80
44121;DHT22;29783;52.504;13.478;2023-03-01T03:45:49;-3273.70;89.10
44121;DHT22;29783;52.504;13.478;2023-03-01T03:48:15;-3273.70;89.20
44121;DHT22;29783;52.504;13.478;2023-03-01T03:50:47;-3273.60;89.30
44121;DHT22;29783;52.504;13.478;2023-03-01T03:53:13;-3273.60;89.60
44121;DHT22;29783;52.504;13.478;2023-03-01T03:55:39;-3273.50;89.80
44121;DHT22;29783;52.504;13.478;2023-03-01T03:58:09;-3273.60;90.10
44121;DHT22;29783;52.504;13.478;2023-03-01T04:00:40;-3273.60;90.30
44121;DHT22;29783;52.504;13.478;2023-03-01T04:03:07;-3273.60;90.20
44121;DHT22;29783;52.504;13.478;2023-03-01T04:05:33;-3273.60;90.30
44121;DHT22;29783;52.504;13.478;2023-03-01T04:07:59;-3273.50;90.30
44121;DHT22;29783;52.504;13.478;2023-03-01T04:10:40;-3273.50;90.30
44121;DHT22;29783;52.504;13.478;2023-03-01T04:13:09;-3273.50;90.50
44121;DHT22;29783;52.504;13.478;2023-03-01T04:15:36;-3273.50;90.50
44121;DHT22;29783;52.504;13.478;2023-03-01T04:18:02;-3273.50;90.50
44121;DHT22;29783;52.504;13.478;2023-03-01T04:20:31;-3273.50;90.60
44121;DHT22;29783;52.504;13.478;2023-03-01T04:23:04;-3273.40;90.80
44121;DHT22;29783;52.504;13.478;2023-03-01T04:25:40;-3273.40;90.80
44121;DHT22;29783;52.504;13.478;2023-03-01T04:28:07;-3273.40;90.90
44121;DHT22;29783;52.504;13.478;2023-03-01T04:30:32;-3273.40;90.90
44121;DHT22;29783;52.504;13.478;2023-03-01T04:33:05;-3273.30;91.00
44121;DHT22;29783;52.504;13.478;2023-03-01T04:35:32;-3273.30;91.20
44121;DHT22;29783;52.504;13.478;2023-03-01T04:37:58;-3273.30;91.30
44121;DHT22;29783;52.504;13.478;2023-03-01T04:40:24;-3273.30;91.30
44121;DHT22;29783;52.504;13.478;2023-03-01T04:42:50;-3273.30;91.40
44121;DHT22;29783;52.504;13.478;2023-03-01T04:45:16;-3273.40;91.70
44121;DHT22;29783;52.504;13.478;2023-03-01T04:47:43;-3273.30;91.50
44121;DHT22;29783;52.504;13.478;2023-03-01T04:50:11;-3273.40;91.40
44121;DHT22;29783;52.504;13.478;2023-03-01T04:52:38;-3273.30;91.20
44121;DHT22;29783;52.504;13.478;2023-03-01T04:55:04;-3273.30;91.40
44121;DHT22;29783;52.504;13.478;2023-03-01T04:57:30;-3273.30;91.30
44121;DHT22;29783;52.504;13.478;2023-03-01T04:59:56;-3273.30;91.40
44121;DHT22;29783;52.504;13.478;2023-03-01T05:02:22;-3273.20;91.20
44121;DHT22;29783;52.504;13.478;2023-03-01T05:04:47;-3273.20;91.30
44121;DHT22;29783;52.504;13.478;2023-03-01T05:07:13;-3273.20;91.30
44121;DHT22;29783;52.504;13.478;2023-03-01T05:09:47;-3273.20;91.40
44121;DHT22;29783;52.504;13.478;2023-03-01T05:12:14;-3273.20;91.50
44121;DHT22;29783;52.504;13.478;2023-03-01T05:14:40;-3273.20;91.40
44121;DHT22;29783;52.504;13.478;2023-03-01T05:17:06;-3273.20;91.50
44121;DHT22;29783;52.504;13.478;2023-03-01T05:19:33;-3273.20;91.70
44121;DHT22;29783;52.504;13.478;2023-03-01T05:21:59;-3273.30;91.70
44121;DHT22;29783;52.504;13.478;2023-03-01T05:24:30;-3273.30;91.50
44121;DHT22;29783;52.504;13.478;2023-03-01T05:26:56;-3273.20;91.40
44121;DHT22;29783;52.504;13.478;2023-03-01T05:29:23;-3273.20;91.40
44121;DHT22;29783;52.504;13.478;2023-03-01T05:31:53;-3273.20;91.40
44121;DHT22;29783;52.504;13.478;2023-03-01T05:37:31;-3273.20;91.30
44121;DHT22;29783;52.504;13.478;2023-03-01T05:39:56;-3273.20;91.30
44121;DHT22;29783;52.504;13.478;2023-03-01T05:42:22;-3273.20;91.30
44121;DHT22;29783;52.504;13.478;2023-03-01T05:44:48;-3273.20;91.20
44121;DHT22;29783;52.504;13.478;2023-03-01T05:47:14;-3273.20;91.20
44121;DHT22;29783;52.504;13.478;2023-03-01T05:49:39;-3273.20;91.20
44121;DHT22;29783;52.504;13.478;2023-03-01T05:52:05;-3273.20;91.30
44121;DHT22;29783;52.504;13.478;2023-03-01T05:54:31;-3273.30;91.30
44121;DHT22;29783;52.504;13.478;2023-03-01T05:56:58;-3273.30;91.30
44121;DHT22;29783;52.504;13.478;2023-03-01T05:59:24;-3273.20;91.40
44121;DHT22;29783;52.504;13.478;2023-03-01T06:01:51;-3273.20;91.50
44121;DHT22;29783;52.504;13.478;2023-03-01T06:04:16;-3273.20;91.60
44121;DHT22;29783;52.504;13.478;2023-03-01T06:06:42;-3273.30;91.70
44121;DHT22;29783;52.504;13.478;2023-03-01T06:09:08;-3273.30;91.80
44121;DHT22;29783;52.504;13.478;2023-03-01T06:11:36;-3273.40;92.00
44121;DHT22;29783;52.504;13.478;2023-03-01T06:14:03;-3273.40;92.10
44121;DHT22;29783;52.504;13.478;2023-03-01T06:16:29;-3273.40;92.20
44121;DHT22;29783;52.504;13.478;2023-03-01T06:18:55;-3273.50;92.30
44121;DHT22;29783;52.504;13.478;2023-03-01T06:21:24;-3273.50;92.40
44121;DHT22;29783;52.504;13.478;2023-03-01T06:23:50;-3273.70;92.80
44121;DHT22;29783;52.504;13.478;2023-03-01T06:26:19;-3273.80;92.90
44121;DHT22;29783;52.504;13.478;2023-03-01T06:28:45;-3274.00;92.80
44121;DHT22;29783;52.504;13.478;2023-03-01T06:31:42;-3274.00;92.80
44121;DHT22;29783;52.504;13.478;2023-03-01T06:34:08;-3274.00;92.60
44121;DHT22;29783;52.504;13.478;2023-03-01T06:36:36;-3274.00;92.60
44121;DHT22;29783;52.504;13.478;2023-03-01T06:39:02;-3274.00;92.60
44121;DHT22;29783;52.504;13.478;2023-03-01T06:41:28;-3274.00;92.70
44121;DHT22;29783;52.504;13.478;2023-03-01T06:43:54;-3274.00;92.80
44121;DHT22;29783;52.504;13.478;2023-03-01T06:46:20;-3274.20;92.90
44121;DHT22;29783;52.504;13.478;2023-03-01T06:48:47;-3274.20;92.90
44121;DHT22;29783;52.504;13.478;2023-03-01T06:51:13;-3274.20;92.90
44121;DHT22;29783;52.504;13.478;2023-03-01T06:53:42;-3274.20;92.90
44121;DHT22;29783;52.504;13.478;2023-03-01T06:56:10;-3274.40;93.10
44121;DHT22;29783;52.504;13.478;2023-03-01T06:58:36;-3275.20;92.90
44121;DHT22;29783;52.504;13.478;2023-03-01T07:01:06;-3275.10;91.60
44121;DHT22;29783;52.504;13.478;2023-03-01T07:03:33;-3275.10;91.20
44121;DHT22;29783;52.504;13.478;2023-03-01T07:05:59;-3275.10;91.00
44121;DHT22;29783;52.504;13.478;2023-03-01T07:08:25;-3275.10;90.80
44121;DHT22;29783;52.504;13.478;2023-03-01T07:10:59;-3275.10;90.80
44121;DHT22;29783;52.504;13.478;2023-03-01T07:13:27;-3275.20;90.70
44121;DHT22;29783;52.504;13.478;2023-03-01T07:15:53;-3275.20;90.50
44121;DHT22;29783;52.504;13.478;2023-03-01T07:18:19;-3275.30;90.20
44121;DHT22;29783;52.504;13.478;2023-03-01T07:20:45;-3275.40;90.00
44121;DHT22;29783;52.504;13.478;2023-03-01T07:23:10;-3275.50;89.60
44121;DHT22;29783;52.504;13.478;2023-03-01T07:25:37;-3275.60;89.00
44121;DHT22;29783;52.504;13.478;2023-03-01T07:28:03;-3275.70;88.30
44121;DHT22;29783;52.504;13.478;2023-03-01T07:30:29;-3275.70;87.80
44121;DHT22;29783;52.504;13.478;2023-03-01T07:32:55;-3275.80;87.60
44121;DHT22;29783;52.504;13.478;2023-03-01T07:35:23;-3275.90;87.20
44121;DHT22;29783;52.504;13.478;2023-03-01T07:37:50;-3276.00;86.90
44121;DHT22;29783;52.504;13.478;2023-03-01T07:40:16;-3276.20;86.40
44121;DHT22;29783;52.504;13.478;2023-03-01T07:42:42;-3276.30;85.90
44121;DHT22;29783;52.504;13.478;2023-03-01T07:45:08;-3276.40;85.40
44121;DHT22;29783;52.504;13.478;2023-03-01T07:47:34;-3276.50;85.00
44121;DHT22;29783;52.504;13.478;2023-03-01T07:50:00;-3276.70;84.60
44121;DHT22;29783;52.504;13.478;2023-03-01T07:52:45;-3276.70;84.30
44121;DHT22;29783;52.504;13.478;2023-03-01T07:55:11;-3276.70;83.90
44121;DHT22;29783;52.504;13.478;2023-03-01T07:57:38;0.00;83.70
44121;DHT22;29783;52.504;13.478;2023-03-01T08:00:08;0.10;83.50
44121;DHT22;29783;52.504;13.478;2023-03-01T08:02:35;0.20;83.50
44121;DHT22;29783;52.504;13.478;2023-03-01T08:05:01;0.30;83.40
44121;DHT22;29783;52.504;13.478;2023-03-01T08:07:27;0.40;83.00
44121;DHT22;29783;52.504;13.478;2023-03-01T08:09:56;0.60;82.60
44121;DHT22;29783;52.504;13.478;2023-03-01T08:12:21;0.80;82.00
44121;DHT22;29783;52.504;13.478;2023-03-01T08:14:47;0.90;81.50
44121;DHT22;29783;52.504;13.478;2023-03-01T08:17:14;1.10;80.90
44121;DHT22;29783;52.504;13.478;2023-03-01T08:19:40;1.20;79.80
44121;DHT22;29783;52.504;13.478;2023-03-01T08:22:06;1.30;79.40
44121;DHT22;29783;52.504;13.478;2023-03-01T08:24:32;1.40;78.90
44121;DHT22;29783;52.504;13.478;2023-03-01T08:26:58;1.60;77.40
44121;DHT22;29783;52.504;13.478;2023-03-01T08:29:24;1.70;75.80
44121;DHT22;29783;52.504;13.478;2023-03-01T08:31:50;1.80;74.90
44121;DHT22;29783;52.504;13.478;2023-03-01T08:34:18;2.00;74.70
44121;DHT22;29783;52.504;13.478;2023-03-01T08:36:45;2.10;73.90
44121;DHT22;29783;52.504;13.478;2023-03-01T08:39:16;2.30;72.90
44121;DHT22;29783;52.504;13.478;2023-03-01T08:41:42;2.40;73.40
44121;DHT22;29783;52.504;13.478;2023-03-01T08:44:10;2.50;73.50
44121;DHT22;29783;52.504;13.478;2023-03-01T08:46:40;2.60;73.40
44121;DHT22;29783;52.504;13.478;2023-03-01T08:49:08;2.80;72.40
44121;DHT22;29783;52.504;13.478;2023-03-01T08:51:35;3.00;71.80
44121;DHT22;29783;52.504;13.478;2023-03-01T08:54:07;3.10;68.60
44121;DHT22;29783;52.504;13.478;2023-03-01T08:56:35;3.10;67.20
44121;DHT22;29783;52.504;13.478;2023-03-01T08:59:01;3.00;64.80
44121;DHT22;29783;52.504;13.478;2023-03-01T09:01:27;3.20;64.20
44121;DHT22;29783;52.504;13.478;2023-03-01T09:03:53;3.30;64.30
44121;DHT22;29783;52.504;13.478;2023-03-01T09:06:19;3.40;63.10
44121;DHT22;29783;52.504;13.478;2023-03-01T09:08:47;3.50;62.30
44121;DHT22;29783;52.504;13.478;2023-03-01T09:11:16;3.50;61.50
44121;DHT22;29783;52.504;13.478;2023-03-01T09:13:43;3.50;60.60
44121;DHT22;29783;52.504;13.478;2023-03-01T09:16:11;3.70;60.70
44121;DHT22;29783;52.504;13.478;2023-03-01T09:18:37;3.80;59.60
44121;DHT22;29783;52.504;13.478;2023-03-01T09:21:08;3.80;58.50
44121;DHT22;29783;52.504;13.478;2023-03-01T09:23:41;3.90;58.50
44121;DHT22;29783;52.504;13.478;2023-03-01T09:26:09;4.00;57.70
44121;DHT22;29783;52.504;13.478;2023-03-01T09:28:36;4.10;57.40
44121;DHT22;29783;52.504;13.478;2023-03-01T09:31:03;4.30;56.60
44121;DHT22;29783;52.504;13.478;2023-03-01T09:33:31;4.40;56.40
44121;DHT22;29783;52.504;13.478;2023-03-01T09:36:02;4.50;54.60
44121;DHT22;29783;52.504;13.478;2023-03-01T09:38:29;4.40;55.10
44121;DHT22;29783;52.504;13.478;2023-03-01T09:40:55;4.40;54.80
44121;DHT22;29783;52.504;13.478;2023-03-01T09:46:14;4.60;54.90
44121;DHT22;29783;52.504;13.478;2023-03-01T09:48:48;4.80;54.50
44121;DHT22;29783;52.504;13.478;2023-03-01T09:51:34;4.80;54.80
44121;DHT22;29783;52.504;13.478;2023-03-01T09:54:04;4.80;53.80
44121;DHT22;29783;52.504;13.478;2023-03-01T09:56:41;4.90;53.70
44121;DHT22;29783;52.504;13.478;2023-03-01T09:59:18;5.10;53.20
44121;DHT22;29783;52.504;13.478;2023-03-01T10:01:59;5.20;52.50
44121;DHT22;29783;52.504;13.478;2023-03-01T10:09:42;5.40;51.80
44121;DHT22;29783;52.504;13.478;2023-03-01T10:12:17;5.40;52.00
44121;DHT22;29783;52.504;13.478;2023-03-01T10:23:16;5.70;50.00
44121;DHT22;29783;52.504;13.478;2023-03-01T10:26:05;5.80;49.60
44121;DHT22;29783;52.504;13.478;2023-03-01T10:31:23;5.80;49.40
44121;DHT22;29783;52.504;13.478;2023-03-01T10:33:53;5.90;49.30
44121;DHT22;29783;52.504;13.478;2023-03-01T10:36:22;5.90;48.90
44121;DHT22;29783;52.504;13.478;2023-03-01T10:38:54;6.00;48.90
44121;DHT22;29783;52.504;13.478;2023-03-01T10:41:21;6.10;48.40
44121;DHT22;29783;52.504;13.478;2023-03-01T10:43:56;6.20;49.20
44121;DHT22;29783;52.504;13.478;2023-03-01T10:46:34;6.30;48.80
44121;DHT22;29783;52.504;13.478;2023-03-01T10:49:15;6.30;48.80
44121;DHT22;29783;52.504;13.478;2023-03-01T10:51:43;6.40;48.90
44121;DHT22;29783;52.504;13.478;2023-03-01T10:54:22;6.30;47.40
44121;DHT22;29783;52.504;13.478;2023-03-01T10:56:59;6.40;47.30
44121;DHT22;29783;52.504;13.478;2023-03-01T10:59:37;6.40;46.30
44121;DHT22;29783;52.504;13.478;2023-03-01T11:02:23;6.40;46.50
44121;DHT22;29783;52.504;13.478;2023-03-01T11:05:02;6.60;45.10
44121;DHT22;29783;52.504;13.478;2023-03-01T11:07:28;6.40;45.20
44121;DHT22;29783;52.504;13.478;2023-03-01T11:09:55;6.40;44.60
44121;DHT22;29783;52.504;13.478;2023-03-01T11:12:21;6.30;45.30
44121;DHT22;29783;52.504;13.478;2023-03-01T11:14:53;6.40;44.20
44121;DHT22;29783;52.504;13.478;2023-03-01T11:17:29;6.50;41.70
44121;DHT22;29783;52.504;13.478;2023-03-01T11:22:54;6.70;40.90
44121;DHT22;29783;52.504;13.478;2023-03-01T11:25:25;6.80;42.90
44121;DHT22;29783;52.504;13.478;2023-03-01T11:27:53;6.80;42.50
44121;DHT22;29783;52.504;13.478;2023-03-01T11:30:40;6.80;43.20
44121;DHT22;29783;52.504;13.478;2023-03-01T11:39:33;7.10;42.80
44121;DHT22;29783;52.504;13.478;2023-03-01T11:45:08;7.20;41.40
44121;DHT22;29783;52.504;13.478;2023-03-01T11:56:50;7.30;43.40
44121;DHT22;29783;52.504;13.478;2023-03-01T12:04:54;7.50;40.00
44121;DHT22;29783;52.504;13.478;2023-03-01T12:07:40;7.30;39.60
44121;DHT22;29783;52.504;13.478;2023-03-01T12:10:23;7.40;39.90
44121;DHT22;29783;52.504;13.478;2023-03-01T12:21:34;7.90;38.90
44121;DHT22;29783;52.504;13.478;2023-03-01T12:24:08;8.00;37.30
44121;DHT22;29783;52.504;13.478;2023-03-01T12:38:06;8.50;36.90
44121;DHT22;29783;52.504;13.478;2023-03-01T12:40:43;8.40;36.40
44121;DHT22;29783;52.504;13.478;2023-03-01T12:43:17;8.30;36.00
44121;DHT22;29783;52.504;13.478;2023-03-01T12:45:50;8.50;36.50
44121;DHT22;29783;52.504;13.478;2023-03-01T12:50:54;9.80;33.40
44121;DHT22;29783;52.504;13.478;2023-03-01T12:55:54;11.10;33.00
44121;DHT22;29783;52.504;13.478;2023-03-01T12:58:38;11.30;30.30
44121;DHT22;29783;52.504;13.478;2023-03-01T13:01:19;12.00;29.20
44121;DHT22;29783;52.504;13.478;2023-03-01T13:04:22;13.00;28.20
44121;DHT22;29783;52.504;13.478;2023-03-01T13:12:02;14.20;26.60
44121;DHT22;29783;52.504;13.478;2023-03-01T13:16:56;14.80;23.70
44121;DHT22;29783;52.504;13.478;2023-03-01T13:19:27;15.00;23.70
44121;DHT22;29783;52.504;13.478;2023-03-01T13:21:58;15.70;22.90
44121;DHT22;29783;52.504;13.478;2023-03-01T13:24:38;15.30;22.10
44121;DHT22;29783;52.504;13.478;2023-03-01T13:29:54;16.80;20.90
44121;DHT22;29783;52.504;13.478;2023-03-01T13:34:56;16.80;22.40
44121;DHT22;29783;52.504;13.478;2023-03-01T13:37:25;17.20;22.70
44121;DHT22;29783;52.504;13.478;2023-03-01T13:39:51;16.30;23.20
44121;DHT22;29783;52.504;13.478;2023-03-01T13:42:44;15.40;24.60
44121;DHT22;29783;52.504;13.478;2023-03-01T13:47:41;15.00;24.70
44121;DHT22;29783;52.504;13.478;2023-03-01T13:50:18;15.00;25.10
44121;DHT22;29783;52.504;13.478;2023-03-01T13:52:59;15.60;24.70
44121;DHT22;29783;52.504;13.478;2023-03-01T13:55:47;15.20;24.80
44121;DHT22;29783;52.504;13.478;2023-03-01T13:58:25;15.70;24.40
44121;DHT22;29783;52.504;13.478;2023-03-01T14:01:00;16.50;23.30
44121;DHT22;29783;52.504;13.478;2023-03-01T14:03:29;16.20;24.60
44121;DHT22;29783;52.504;13.478;2023-03-01T14:06:12;16.90;23.80
44121;DHT22;29783;52.504;13.478;2023-03-01T14:08:38;18.20;21.80
44121;DHT22;29783;52.504;13.478;2023-03-01T14:11:18;17.60;22.30
44121;DHT22;29783;52.504;13.478;2023-03-01T14:21:34;16.50;24.00
44121;DHT22;29783;52.504;13.478;2023-03-01T14:24:02;17.20;23.20
44121;DHT22;29783;52.504;13.478;2023-03-01T14:26:27;17.70;23.10
44121;DHT22;29783;52.504;13.478;2023-03-01T14:28:54;16.90;24.00
44121;DHT22;29783;52.504;13.478;2023-03-01T14:31:39;17.50;23.50
44121;DHT22;29783;52.504;13.478;2023-03-01T14:34:20;17.60;23.20
44121;DHT22;29783;52.504;13.478;2023-03-01T14:36:46;17.70;23.70
44121;DHT22;29783;52.504;13.478;2023-03-01T14:39:20;17.60;23.60
44121;DHT22;29783;52.504;13.478;2023-03-01T14:41:49;17.60;23.80
44121;DHT22;29783;52.504;13.478;2023-03-01T14:44:20;17.30;24.70
44121;DHT22;29783;52.504;13.478;2023-03-01T14:46:52;18.60;23.10
44121;DHT22;29783;52.504;13.478;2023-03-01T14:49:21;18.40;23.20
44121;DHT22;29783;52.504;13.478;2023-03-01T14:52:02;17.80;24.20
44121;DHT22;29783;52.504;13.478;2023-03-01T14:54:41;18.00;24.30
44121;DHT22;29783;52.504;13.478;2023-03-01T14:57:25;17.50;24.70
44121;DHT22;29783;52.504;13.478;2023-03-01T14:59:59;17.50;24.40
44121;DHT22;29783;52.504;13.478;2023-03-01T15:02:29;17.40;24.80
44121;DHT22;29783;52.504;13.478;2023-03-01T15:04:58;17.90;24.30
44121;DHT22;29783;52.504;13.478;2023-03-01T15:07:29;17.40;24.90
44121;DHT22;29783;52.504;13.478;2023-03-01T15:09:58;17.20;25.50
44121;DHT22;29783;52.504;13.478;2023-03-01T15:14:53;18.10;25.10
44121;DHT22;29783;52.504;13.478;2023-03-01T15:17:31;17.80;25.50
44121;DHT22;29783;52.504;13.478;2023-03-01T15:19:58;17.30;25.70
44121;DHT22;29783;52.504;13.478;2023-03-01T15:22:26;16.70;26.90
44121;DHT22;29783;52.504;13.478;2023-03-01T15:24:53;16.90;26.00
44121;DHT22;29783;52.504;13.478;2023-03-01T15:27:24;16.70;26.10
44121;DHT22;29783;52.504;13.478;2023-03-01T15:29:53;16.60;26.10
44121;DHT22;29783;52.504;13.478;2023-03-01T15:34:58;16.20;27.50
44121;DHT22;29783;52.504;13.478;2023-03-01T15:37:47;16.20;27.70
44121;DHT22;29783;52.504;13.478;2023-03-01T15:40:27;16.50;27.50
44121;DHT22;29783;52.504;13.478;2023-03-01T15:43:02;16.20;28.10
44121;DHT22;29783;52.504;13.478;2023-03-01T15:45:30;16.00;29.10
44121;DHT22;29783;52.504;13.478;2023-03-01T15:48:05;16.20;29.20
44121;DHT22;29783;52.504;13.478;2023-03-01T15:50:39;16.00;29.60
44121;DHT22;29783;52.504;13.478;2023-03-01T15:53:12;15.80;28.30
44121;DHT22;29783;52.504;13.478;2023-03-01T15:55:37;15.60;28.60
44121;DHT22;29783;52.504;13.478;2023-03-01T15:58:04;15.70;28.90
44121;DHT22;29783;52.504;13.478;2023-03-01T16:00:32;14.80;29.50
44121;DHT22;29783;52.504;13.478;2023-03-01T16:02:58;13.80;31.10
44121;DHT22;29783;52.504;13.478;2023-03-01T16:07:52;12.60;33.00
44121;DHT22;29783;52.504;13.478;2023-03-01T16:10:19;12.50;33.50
44121;DHT22;29783;52.504;13.478;2023-03-01T16:12:45;12.10;34.60
44121;DHT22;29783;52.504;13.478;2023-03-01T16:15:17;11.70;34.90
44121;DHT22;29783;52.504;13.478;2023-03-01T16:17:43;11.50;35.80
44121;DHT22;29783;52.504;13.478;2023-03-01T16:20:10;11.10;36.50
44121;DHT22;29783;52.504;13.478;2023-03-01T16:22:36;10.50;37.40
44121;DHT22;29783;52.504;13.478;2023-03-01T16:25:01;9.80;39.00
44121;DHT22;29783;52.504;13.478;2023-03-01T16:27:28;9.50;40.20
44121;DHT22;29783;52.504;13.478;2023-03-01T16:29:54;9.10;40.90
44121;DHT22;29783;52.504;13.478;2023-03-01T16:32:20;8.80;43.00
44121;DHT22;29783;52.504;13.478;2023-03-01T16:34:45;8.70;42.70
44121;DHT22;29783;52.504;13.478;2023-03-01T16:37:15;8.40;43.30
44121;DHT22;29783;52.504;13.478;2023-03-01T16:39:40;8.20;43.90
44121;DHT22;29783;52.504;13.478;2023-03-01T16:42:06;8.00;44.60
44121;DHT22;29783;52.504;13.478;2023-03-01T16:44:32;7.80;45.40
44121;DHT22;29783;52.504;13.478;2023-03-01T16:46:57;7.70;45.80
44121;DHT22;29783;52.504;13.478;2023-03-01T16:49:23;7.50;46.20
44121;DHT22;29783;52.504;13.478;2023-03-01T16:51:49;7.40;46.60
44121;DHT22;29783;52.504;13.478;2023-03-01T16:54:14;7.30;46.80
44121;DHT22;29783;52.504;13.478;2023-03-01T16:56:40;7.10;47.10
44121;DHT22;29783;52.504;13.478;2023-03-01T16:59:07;6.90;47.80
44121;DHT22;29783;52.504;13.478;2023-03-01T17:08:17;6.40;49.10
44121;DHT22;29783;52.504;13.478;2023-03-01T17:10:42;6.20;49.90
44121;DHT22;29783;52.504;13.478;2023-03-01T17:13:09;6.10;50.40
44121;DHT22;29783;52.504;13.478;2023-03-01T17:15:40;6.00;50.80